aviador You're here:

TNCM Decoded Metar

PHILIPSBURG in ANTILLES
Report Time2018-07-22 02:00:00
UTC Time2018-07-22 03:05:25
Flight Rules vfr VFR
Wind090° at 10 kt
W.Decomp.*RWY 10: 10.0 kt HW 0.7 kt RCW
W.Rank090° ranks 1
Current wind is above 090° avg. (9.6)
Visibility9999 m
Phenomena:N/A
Clouds:Few 021 Hf
Expected CloudBase > 2,400 ft AGL from Temp-Dew spread
CeilingNone
Temp28°C (ISA +13)
Dew Point22°C (70% RH)
Heat Index30.7°C
QNH1017 hPa
Density Alt1,726 ft
Elevation13 ft
Report Wrong Elevation
Raw Report
TNCM 220200Z 09010KT 050V110 9999 FEW021 28/22 Q1017 RMK A3004=

Extra information for TNCM:More info

Metar Taf Metar & Taf Last 4 Metars F.Rules Stats Wind Profile Meteogram Temp Stats Airport Information Weather charts Add Link Nearby VenuesMetar ALERT Operation Metar Decoded Social comments